CheckWX is a tool to help pilots better visualize weather data.  It is not intended as a substitute for an official pre-flight weather briefing.

05:07:18 UTC

KOWB TAF
Owensboro-Daviess County Regional Airport
Owensboro, Kentucky, USA
KOWB 162320Z 1700/1724 VRB04KT P6SM FEW045 FM171000 VRB03KT 5SM BR FEW045 SCT080 FM171300 04005KT P6SM FEW021 SCT100

Sep-17@
00:00 UTC

Sep-17 @ 00:00 UTC

Sep-17@
10:00 UTC

Sep-17 @ 10:00 UTC

KOWB 162320Z 1700/1724 VRB04KT P6SM FEW045
Wind
  • Variable at 4 KTS
Cloud Levels
  • Few at 4,500' AGL

Sep-17@
10:00 UTC

Sep-17 @ 10:00 UTC

Sep-17@
13:00 UTC

Sep-17 @ 13:00 UTC

FM171000 VRB03KT 5SM BR FEW045 SCT080

From

From Standard forecast or significant change

Wind
  • Variable at 3 KTS
Conditions
Mist
Cloud Levels
  • Few at 4,500' AGL
  • Scattered at 8,000' AGL

Sep-17@
13:00 UTC

Sep-17 @ 13:00 UTC

Sep-18@
00:00 UTC

Sep-18 @ 00:00 UTC

FM171300 04005KT P6SM FEW021 SCT100

From

From Standard forecast or significant change

Wind
  • 040° at 5 KTS
Cloud Levels
  • Few at 2,100' AGL
  • Scattered at 10,000' AGL